Time;durP1;ratioP1;P1;durP2;ratioP2;P2;SDS_P1;SDS_P2;PMS_P1;PMS_P2;Temp;Humidity;BMP_temperature;BMP_pressure;BME280_temperature;BME280_humidity;BME280_pressure;Samples;Min_cycle;Max_cycle;Signal;HPM_P1;HPM_P2
2022/12/01 00:00:46;;;;;;;26.97;15.13;;;;;;;;;;5048255;28;20017;-77
2022/12/01 00:03:12;;;;;;;28.00;16.10;;;;;;;;;;5059269;28;20155;-77
2022/12/01 00:05:38;;;;;;;31.93;16.53;;;;;;;;;;5046167;28;20040;-77
2022/12/01 00:08:07;;;;;;;32.90;17.60;;;;;;;;;;5045152;28;20425;-77
2022/12/01 00:10:34;;;;;;;28.03;15.00;;;;;;;;;;5043514;28;20025;-78
2022/12/01 00:13:01;;;;;;;27.27;14.07;;;;;;;;;;5059844;28;20485;-77
2022/12/01 00:15:34;;;;;;;27.30;13.63;;;;;;;;;;5046765;28;20116;-76
2022/12/01 00:18:01;;;;;;;27.20;15.63;;;;;;;;;;5060062;28;20043;-77
2022/12/01 00:20:28;;;;;;;26.43;15.03;;;;;;;;;;5042892;28;20030;-76
2022/12/01 00:22:54;;;;;;;25.67;14.53;;;;;;;;;;5046703;28;20116;-77
2022/12/01 00:25:20;;;;;;;27.80;14.83;;;;;;;;;;5051255;28;20059;-77
2022/12/01 00:27:50;;;;;;;24.67;14.40;;;;;;;;;;5045567;28;20041;-76
2022/12/01 00:30:16;;;;;;;24.20;13.27;;;;;;;;;;5055870;28;20025;-77
2022/12/01 00:32:43;;;;;;;24.33;13.40;;;;;;;;;;5043313;28;20029;-77
2022/12/01 00:35:09;;;;;;;25.63;15.20;;;;;;;;;;5058103;28;20037;-77
2022/12/01 00:37:37;;;;;;;27.70;15.50;;;;;;;;;;5044435;28;20029;-77
2022/12/01 00:40:04;;;;;;;26.30;15.10;;;;;;;;;;5055965;28;21854;-77
2022/12/01 00:42:30;;;;;;;26.43;15.53;;;;;;;;;;5043784;28;20025;-77
2022/12/01 00:44:57;;;;;;;31.33;16.37;;;;;;;;;;5059756;28;20051;-77
2022/12/01 00:47:23;;;;;;;25.93;15.17;;;;;;;;;;5046875;28;20104;-76
2022/12/01 00:49:51;;;;;;;28.80;15.80;;;;;;;;;;5046025;28;20060;-77
2022/12/01 00:52:17;;;;;;;31.07;15.93;;;;;;;;;;5049804;28;20025;-75
2022/12/01 00:54:45;;;;;;;25.73;15.77;;;;;;;;;;5047673;28;20029;-77
2022/12/01 00:57:11;;;;;;;27.27;15.57;;;;;;;;;;5060788;28;20097;-76
2022/12/01 00:59:37;;;;;;;29.73;16.83;;;;;;;;;;5045195;28;20086;-77
2022/12/01 01:02:04;;;;;;;31.00;17.90;;;;;;;;;;5058688;28;20021;-76
2022/12/01 01:04:33;;;;;;;30.97;18.00;;;;;;;;;;5046072;28;20029;-77
2022/12/01 01:06:59;;;;;;;28.53;16.37;;;;;;;;;;5060577;28;20108;-76
2022/12/01 01:09:25;;;;;;;28.73;16.47;;;;;;;;;;5057338;28;20029;-77
2022/12/01 01:11:52;;;;;;;32.77;17.80;;;;;;;;;;5043343;28;20029;-76
2022/12/01 01:14:18;;;;;;;37.43;17.80;;;;;;;;;;5060197;28;20525;-76
2022/12/01 01:16:45;;;;;;;37.47;20.47;;;;;;;;;;5053765;28;20021;-77
2022/12/01 01:19:11;;;;;;;33.90;18.23;;;;;;;;;;5067023;28;20029;-77
2022/12/01 01:21:39;;;;;;;39.77;19.53;;;;;;;;;;5056066;28;20025;-77
2022/12/01 01:24:05;;;;;;;36.70;19.17;;;;;;;;;;5058283;28;20456;-77
2022/12/01 01:26:31;;;;;;;36.43;19.90;;;;;;;;;;5072849;28;20048;-76
2022/12/01 01:28:59;;;;;;;39.73;20.07;;;;;;;;;;5058066;28;20029;-76
2022/12/01 01:31:26;;;;;;;37.00;20.37;;;;;;;;;;5060984;28;20028;-77
2022/12/01 01:33:52;;;;;;;41.30;22.10;;;;;;;;;;5058497;28;20166;-76
2022/12/01 01:36:18;;;;;;;38.47;19.80;;;;;;;;;;5058907;28;20025;-76
2022/12/01 01:38:45;;;;;;;42.50;22.03;;;;;;;;;;5065347;28;20025;-76
2022/12/01 01:41:11;;;;;;;43.90;22.40;;;;;;;;;;5077854;28;20039;-76
2022/12/01 01:43:38;;;;;;;41.23;22.30;;;;;;;;;;5057568;28;20025;-77
2022/12/01 01:46:05;;;;;;;45.07;22.47;;;;;;;;;;5057769;28;20040;-77
2022/12/01 01:48:32;;;;;;;41.47;21.50;;;;;;;;;;5057783;28;20114;-77
2022/12/01 01:50:58;;;;;;;44.73;23.20;;;;;;;;;;5067653;28;20428;-77
2022/12/01 01:53:24;;;;;;;44.93;22.97;;;;;;;;;;5061903;28;20055;-77
2022/12/01 01:55:50;;;;;;;52.03;24.13;;;;;;;;;;5049017;28;20084;-77
2022/12/01 01:58:16;;;;;;;46.17;24.33;;;;;;;;;;5053115;28;20029;-76
2022/12/01 02:00:45;;;;;;;50.27;24.73;;;;;;;;;;5057798;28;20025;-77
2022/12/01 02:03:12;;;;;;;51.03;23.20;;;;;;;;;;5057845;28;20190;-76
2022/12/01 02:05:39;;;;;;;47.90;24.00;;;;;;;;;;5071375;28;20028;-76
2022/12/01 02:08:11;;;;;;;48.70;25.53;;;;;;;;;;5059283;28;20060;-76
2022/12/01 02:10:55;;;;;;;60.50;28.00;;;;;;;;;;5058303;28;20642;-76
2022/12/01 02:13:33;;;;;;;50.30;24.47;;;;;;;;;;5045645;28;20128;-77
2022/12/01 02:15:59;;;;;;;50.43;24.80;;;;;;;;;;5060092;28;20025;-76
2022/12/01 02:18:43;;;;;;;58.93;27.20;;;;;;;;;;5056922;28;20036;-76
2022/12/01 02:21:16;;;;;;;54.63;27.30;;;;;;;;;;5043436;28;20083;-77
2022/12/01 02:24:00;;;;;;;61.35;26.77;;;;;;;;;;5056957;28;20104;-77
2022/12/01 02:26:29;;;;;;;57.77;27.60;;;;;;;;;;5061375;28;20025;-77
2022/12/01 02:28:55;;;;;;;59.10;26.83;;;;;;;;;;5056999;28;20029;-77
2022/12/01 02:31:48;;;;;;;55.47;25.87;;;;;;;;;;5056345;28;20531;-77
2022/12/01 02:34:20;;;;;;;57.30;28.15;;;;;;;;;;5052641;28;20106;-77
2022/12/01 02:36:53;;;;;;;61.03;29.45;;;;;;;;;;5056569;28;20028;-77
2022/12/01 02:39:28;;;;;;;62.97;29.50;;;;;;;;;;5069455;28;20464;-76
2022/12/01 02:42:03;;;;;;;60.77;27.70;;;;;;;;;;5056557;28;20025;-77
2022/12/01 02:44:39;;;;;;;57.60;26.60;;;;;;;;;;5056777;28;20418;-77
2022/12/01 02:47:13;;;;;;;59.47;29.23;;;;;;;;;;5056820;28;20068;-76
2022/12/01 02:49:45;;;;;;;61.27;28.10;;;;;;;;;;5040417;28;20041;-77
2022/12/01 02:52:12;;;;;;;59.23;27.43;;;;;;;;;;5062038;28;20037;-77
2022/12/01 02:54:39;;;;;;;50.07;24.60;;;;;;;;;;5062917;28;20091;-78
2022/12/01 02:57:05;;;;;;;56.50;28.53;;;;;;;;;;5049059;28;20026;-77
2022/12/01 02:59:31;;;;;;;50.40;26.30;;;;;;;;;;5053349;28;20029;-77
2022/12/01 03:01:57;;;;;;;56.47;27.57;;;;;;;;;;5055296;28;20032;-77
2022/12/01 03:04:35;;;;;;;57.13;27.73;;;;;;;;;;5056174;28;20025;-76
2022/12/01 03:07:07;;;;;;;59.87;29.57;;;;;;;;;;5055931;28;20033;-77
2022/12/01 03:09:39;;;;;;;64.43;30.13;;;;;;;;;;5044290;28;20087;-77
2022/12/01 03:12:29;;;;;;;61.63;28.73;;;;;;;;;;5053758;28;20040;-76
2022/12/01 03:15:15;;;;;;;64.90;30.17;;;;;;;;;;5044227;28;20029;-76
2022/12/01 03:17:44;;;;;;;68.00;28.07;;;;;;;;;;5045533;28;20060;-76
2022/12/01 03:20:16;;;;;;;59.07;27.70;;;;;;;;;;5057628;28;20113;-76
2022/12/01 03:22:51;;;;;;;62.67;28.13;;;;;;;;;;5055847;28;20021;-76
2022/12/01 03:25:17;;;;;;;59.73;28.27;;;;;;;;;;5054617;28;20441;-76
2022/12/01 03:27:46;;;;;;;57.50;27.87;;;;;;;;;;5056601;28;20025;-77
2022/12/01 03:30:13;;;;;;;68.83;29.50;;;;;;;;;;5035789;28;20029;-76
2022/12/01 03:32:39;;;;;;;62.83;29.63;;;;;;;;;;5055576;28;20086;-77
2022/12/01 03:35:11;;;;;;;61.00;30.80;;;;;;;;;;5055750;28;20025;-76
2022/12/01 03:37:47;;;;;;;71.10;32.13;;;;;;;;;;5057159;28;20027;-77
2022/12/01 03:40:17;;;;;;;68.90;30.57;;;;;;;;;;5067561;28;20453;-77
2022/12/01 03:42:45;;;;;;;69.93;31.40;;;;;;;;;;5041259;28;20025;-77
2022/12/01 03:45:15;;;;;;;68.60;31.30;;;;;;;;;;5048664;28;20029;-76
2022/12/01 03:47:41;;;;;;;71.20;31.27;;;;;;;;;;5050081;28;20041;-76
2022/12/01 03:50:12;;;;;;;69.17;31.73;;;;;;;;;;5055343;28;20025;-77
2022/12/01 03:52:41;;;;;;;69.20;31.27;;;;;;;;;;5055551;28;20020;-76
2022/12/01 03:55:19;;;;;;;74.73;32.83;;;;;;;;;;5055623;28;20024;-76
2022/12/01 03:57:48;;;;;;;80.27;34.37;;;;;;;;;;5068936;28;20028;-77
2022/12/01 04:00:15;;;;;;;78.63;33.00;;;;;;;;;;5056342;28;20033;-76
2022/12/01 04:02:43;;;;;;;95.23;37.60;;;;;;;;;;5055184;28;20607;-76
2022/12/01 04:05:10;;;;;;;97.77;37.27;;;;;;;;;;5055726;28;20043;-77
2022/12/01 04:07:36;;;;;;;100.17;39.73;;;;;;;;;;5045792;28;20040;-77
2022/12/01 04:10:02;;;;;;;100.60;39.33;;;;;;;;;;5053330;28;20706;-77
2022/12/01 04:12:28;;;;;;;103.83;39.13;;;;;;;;;;5054665;28;20029;-77
2022/12/01 04:14:55;;;;;;;101.10;39.43;;;;;;;;;;5041832;28;20414;-77
2022/12/01 04:17:21;;;;;;;83.03;31.57;;;;;;;;;;5068668;28;20056;-77
2022/12/01 04:19:47;;;;;;;93.67;36.73;;;;;;;;;;5055107;28;20108;-77
2022/12/01 04:22:16;;;;;;;99.30;38.07;;;;;;;;;;5055050;28;20063;-77
2022/12/01 04:24:42;;;;;;;98.17;37.30;;;;;;;;;;5064828;28;20024;-77
2022/12/01 04:27:08;;;;;;;99.03;36.50;;;;;;;;;;5053398;28;20029;-77
2022/12/01 04:29:34;;;;;;;102.80;37.57;;;;;;;;;;5054697;28;20059;-76
2022/12/01 04:32:02;;;;;;;91.07;35.00;;;;;;;;;;5051704;28;20029;-77
2022/12/01 04:34:28;;;;;;;85.67;34.73;;;;;;;;;;5055241;28;20460;-76
2022/12/01 04:36:54;;;;;;;88.00;35.17;;;;;;;;;;5054265;28;20040;-77
2022/12/01 04:39:20;;;;;;;101.87;39.20;;;;;;;;;;5069508;28;20029;-77
2022/12/01 04:41:49;;;;;;;93.70;35.83;;;;;;;;;;5055406;28;20028;-76
2022/12/01 04:44:15;;;;;;;84.80;37.10;;;;;;;;;;5054109;28;20064;-77
2022/12/01 04:46:41;;;;;;;83.90;34.70;;;;;;;;;;5040322;28;20032;-77
2022/12/01 04:49:07;;;;;;;85.60;34.13;;;;;;;;;;5054755;28;20032;-77
2022/12/01 04:51:33;;;;;;;91.00;36.57;;;;;;;;;;5040440;28;20044;-77
2022/12/01 04:54:04;;;;;;;81.87;34.77;;;;;;;;;;5054186;28;20041;-76
2022/12/01 04:56:32;;;;;;;90.73;34.67;;;;;;;;;;5051496;28;20039;-77
2022/12/01 04:58:59;;;;;;;91.57;36.30;;;;;;;;;;5050914;28;20039;-77
2022/12/01 05:01:25;;;;;;;88.43;32.27;;;;;;;;;;5048959;28;20029;-76
2022/12/01 05:03:51;;;;;;;79.93;32.93;;;;;;;;;;5054340;28;20033;-77
2022/12/01 05:06:24;;;;;;;88.57;36.87;;;;;;;;;;5041260;28;20033;-77
2022/12/01 05:08:53;;;;;;;97.43;36.03;;;;;;;;;;5056412;28;20029;-77
2022/12/01 05:11:19;;;;;;;87.27;34.63;;;;;;;;;;5054571;28;20029;-76
2022/12/01 05:13:47;;;;;;;92.23;37.93;;;;;;;;;;5048512;28;20029;-77
2022/12/01 05:16:16;;;;;;;99.97;39.67;;;;;;;;;;5046312;28;20446;-75
2022/12/01 05:18:42;;;;;;;108.20;39.47;;;;;;;;;;5045466;28;20064;-77
2022/12/01 05:21:09;;;;;;;92.60;37.37;;;;;;;;;;5044785;28;20040;-77
2022/12/01 05:23:36;;;;;;;95.23;36.50;;;;;;;;;;5042400;28;20033;-76
2022/12/01 05:26:03;;;;;;;94.10;39.43;;;;;;;;;;5056751;28;20047;-75
2022/12/01 05:28:29;;;;;;;91.63;35.53;;;;;;;;;;5048616;28;20475;-77
2022/12/01 05:30:56;;;;;;;94.80;35.90;;;;;;;;;;5058707;28;20051;-78
2022/12/01 05:33:25;;;;;;;91.23;36.33;;;;;;;;;;5044540;28;20041;-77
2022/12/01 05:35:51;;;;;;;80.27;33.53;;;;;;;;;;5044776;28;20028;-76
2022/12/01 05:38:18;;;;;;;84.33;35.97;;;;;;;;;;5044737;28;20032;-77
2022/12/01 05:40:49;;;;;;;89.77;36.10;;;;;;;;;;5044804;28;20026;-77
2022/12/01 05:43:15;;;;;;;79.27;34.37;;;;;;;;;;5043901;28;20040;-76
2022/12/01 05:45:41;;;;;;;80.13;36.20;;;;;;;;;;5047513;28;20473;-76
2022/12/01 05:48:08;;;;;;;84.37;36.27;;;;;;;;;;5044770;28;20037;-76
2022/12/01 05:50:37;;;;;;;76.97;33.70;;;;;;;;;;5042543;28;20491;-77
2022/12/01 05:53:03;;;;;;;80.27;35.57;;;;;;;;;;5055863;28;20041;-77
2022/12/01 05:55:29;;;;;;;80.17;36.70;;;;;;;;;;5042713;28;20114;-77
2022/12/01 05:57:55;;;;;;;85.27;36.67;;;;;;;;;;5059953;28;20025;-78
2022/12/01 06:00:23;;;;;;;79.43;33.30;;;;;;;;;;5045128;28;20041;-76
2022/12/01 06:02:49;;;;;;;77.63;34.47;;;;;;;;;;5048630;28;20044;-77
2022/12/01 06:05:16;;;;;;;84.20;36.00;;;;;;;;;;5042054;28;20033;-77
2022/12/01 06:07:42;;;;;;;84.00;36.97;;;;;;;;;;5058585;28;20079;-77
2022/12/01 06:10:12;;;;;;;85.43;37.67;;;;;;;;;;5047928;28;20088;-77
2022/12/01 06:12:38;;;;;;;74.00;32.03;;;;;;;;;;5052336;28;20091;-77
2022/12/01 06:15:05;;;;;;;74.00;33.70;;;;;;;;;;5047144;28;20040;-78
2022/12/01 06:17:34;;;;;;;81.63;34.73;;;;;;;;;;5066071;28;20485;-78
2022/12/01 06:20:00;;;;;;;81.33;34.07;;;;;;;;;;5050123;28;20021;-78
2022/12/01 06:22:26;;;;;;;76.03;32.47;;;;;;;;;;5046070;28;20029;-78
2022/12/01 06:24:52;;;;;;;65.67;29.13;;;;;;;;;;5048486;28;20116;-77
2022/12/01 06:27:18;;;;;;;71.57;30.97;;;;;;;;;;5051191;28;20116;-77
2022/12/01 06:29:44;;;;;;;74.07;31.83;;;;;;;;;;5047307;28;20048;-77
2022/12/01 06:32:13;;;;;;;69.87;31.80;;;;;;;;;;5047221;28;20037;-77
2022/12/01 06:34:39;;;;;;;68.73;30.00;;;;;;;;;;5057896;28;20594;-77
2022/12/01 06:37:05;;;;;;;71.20;31.03;;;;;;;;;;5058679;28;20088;-77
2022/12/01 06:39:31;;;;;;;68.87;28.73;;;;;;;;;;5048072;28;20033;-77
2022/12/01 06:41:57;;;;;;;66.07;29.03;;;;;;;;;;5058876;28;20083;-77
2022/12/01 06:44:23;;;;;;;68.93;29.63;;;;;;;;;;5049032;28;20026;-77
2022/12/01 06:46:51;;;;;;;65.93;29.03;;;;;;;;;;5050063;28;21628;-76
2022/12/01 06:49:17;;;;;;;65.07;28.30;;;;;;;;;;5051235;28;20117;-76
2022/12/01 06:51:44;;;;;;;59.07;27.37;;;;;;;;;;5045009;28;20037;-76
2022/12/01 06:54:11;;;;;;;61.37;27.13;;;;;;;;;;5046552;28;20033;-77
2022/12/01 06:56:37;;;;;;;62.83;27.27;;;;;;;;;;5065087;28;20033;-78
2022/12/01 06:59:03;;;;;;;67.77;27.27;;;;;;;;;;5042211;28;20049;-77
2022/12/01 07:01:29;;;;;;;58.43;26.90;;;;;;;;;;5045091;28;20037;-78
2022/12/01 07:03:55;;;;;;;63.50;26.87;;;;;;;;;;5048162;28;20021;-77
2022/12/01 07:06:21;;;;;;;59.00;26.20;;;;;;;;;;5060610;28;20037;-77
2022/12/01 07:08:47;;;;;;;61.07;26.43;;;;;;;;;;5061023;28;20053;-77
2022/12/01 07:11:14;;;;;;;63.43;27.60;;;;;;;;;;5048611;28;20036;-77
2022/12/01 07:13:48;;;;;;;57.33;25.90;;;;;;;;;;5052002;28;20353;-77
2022/12/01 07:16:14;;;;;;;61.80;26.13;;;;;;;;;;5062954;28;20034;-77
2022/12/01 07:18:43;;;;;;;60.67;26.17;;;;;;;;;;5052516;28;20033;-77
2022/12/01 07:21:11;;;;;;;55.83;25.50;;;;;;;;;;5057278;28;20074;-77
2022/12/01 07:23:39;;;;;;;52.10;22.87;;;;;;;;;;5062538;28;20021;-78
2022/12/01 07:26:13;;;;;;;55.33;25.40;;;;;;;;;;5051176;28;20029;-76
2022/12/01 07:28:41;;;;;;;59.93;26.03;;;;;;;;;;5066647;28;20028;-78
2022/12/01 07:31:07;;;;;;;60.33;26.83;;;;;;;;;;5063152;28;20112;-77
2022/12/01 07:33:33;;;;;;;54.30;25.23;;;;;;;;;;5059479;28;20056;-77
2022/12/01 07:35:59;;;;;;;58.23;25.57;;;;;;;;;;5051378;28;20083;-78
2022/12/01 07:38:27;;;;;;;57.30;24.70;;;;;;;;;;5053630;28;20456;-77
2022/12/01 07:40:53;;;;;;;53.10;24.87;;;;;;;;;;5065747;28;20373;-76
2022/12/01 07:43:20;;;;;;;55.53;25.53;;;;;;;;;;5059681;28;20029;-76
2022/12/01 07:45:48;;;;;;;54.57;25.33;;;;;;;;;;5055269;28;20369;-77
2022/12/01 07:48:14;;;;;;;52.33;24.97;;;;;;;;;;5059901;28;20044;-77
2022/12/01 07:50:40;;;;;;;57.83;26.43;;;;;;;;;;5059680;28;20029;-76
2022/12/01 07:53:06;;;;;;;55.47;27.03;;;;;;;;;;5057927;28;20043;-77
2022/12/01 07:55:32;;;;;;;51.37;24.00;;;;;;;;;;5066566;28;20449;-77
2022/12/01 07:58:01;;;;;;;56.60;25.00;;;;;;;;;;5054667;28;20029;-77
2022/12/01 08:00:27;;;;;;;55.13;26.33;;;;;;;;;;5055711;28;20070;-76
2022/12/01 08:02:53;;;;;;;52.93;25.77;;;;;;;;;;5058487;28;20025;-77
2022/12/01 08:05:19;;;;;;;58.57;25.43;;;;;;;;;;5045439;28;20040;-76
2022/12/01 08:07:45;;;;;;;51.30;23.93;;;;;;;;;;5061338;28;20020;-76
2022/12/01 08:10:11;;;;;;;58.57;25.93;;;;;;;;;;5045543;28;20377;-76
2022/12/01 08:12:41;;;;;;;57.00;26.20;;;;;;;;;;5059524;28;20442;-76
2022/12/01 08:15:07;;;;;;;54.53;27.33;;;;;;;;;;5054498;28;20080;-77
2022/12/01 08:17:33;;;;;;;64.27;28.37;;;;;;;;;;5059277;28;20040;-76
2022/12/01 08:19:59;;;;;;;62.87;27.27;;;;;;;;;;5054735;28;20036;-77
2022/12/01 08:22:25;;;;;;;56.10;26.47;;;;;;;;;;5055100;28;20017;-76
2022/12/01 08:24:51;;;;;;;52.47;21.67;;;;;;;;;;5054908;28;20052;-76
2022/12/01 08:27:17;;;;;;;65.03;29.13;;;;;;;;;;5058067;28;20044;-76
2022/12/01 08:29:43;;;;;;;55.30;23.77;;;;;;;;;;5055028;28;20039;-76
2022/12/01 08:32:09;;;;;;;52.87;25.70;;;;;;;;;;5053492;28;20094;-76
2022/12/01 08:34:41;;;;;;;56.53;26.07;;;;;;;;;;5058875;28;20033;-76
2022/12/01 08:37:07;;;;;;;55.47;24.92;;;;;;;;;;5059004;28;20020;-76
2022/12/01 08:39:33;;;;;;;54.00;24.70;;;;;;;;;;5070955;28;20040;-76
2022/12/01 08:41:59;;;;;;;49.13;23.33;;;;;;;;;;5053989;28;20017;-76
2022/12/01 08:44:25;;;;;;;53.27;23.40;;;;;;;;;;5054645;28;20021;-76
2022/12/01 08:46:51;;;;;;;54.10;24.20;;;;;;;;;;5048074;28;20030;-77
2022/12/01 08:49:17;;;;;;;54.77;24.17;;;;;;;;;;5050847;28;20021;-76
2022/12/01 08:51:43;;;;;;;55.10;25.07;;;;;;;;;;5069829;28;20040;-76
2022/12/01 08:54:10;;;;;;;54.43;24.67;;;;;;;;;;5054384;28;20037;-76
2022/12/01 08:56:38;;;;;;;48.03;22.87;;;;;;;;;;5053798;28;20111;-77
2022/12/01 08:59:04;;;;;;;56.27;24.20;;;;;;;;;;5054169;28;20021;-77
2022/12/01 09:01:31;;;;;;;52.00;24.03;;;;;;;;;;5041198;28;20032;-76
2022/12/01 09:04:04;;;;;;;54.67;24.10;;;;;;;;;;5066122;28;20041;-76
2022/12/01 09:06:50;;;;;;;55.77;23.53;;;;;;;;;;5068066;28;20103;-76
2022/12/01 09:09:18;;;;;;;46.07;22.43;;;;;;;;;;5044364;28;20044;-77
2022/12/01 09:11:45;;;;;;;49.50;23.10;;;;;;;;;;5066802;28;20120;-76
2022/12/01 09:14:14;;;;;;;48.07;21.53;;;;;;;;;;5046904;28;20036;-77
2022/12/01 09:16:42;;;;;;;50.17;22.63;;;;;;;;;;5079454;28;20024;-77
2022/12/01 09:19:08;;;;;;;46.27;21.50;;;;;;;;;;5074598;28;20048;-76
2022/12/01 09:21:36;;;;;;;41.57;21.87;;;;;;;;;;5062232;28;20025;-76
2022/12/01 09:24:02;;;;;;;52.53;21.23;;;;;;;;;;5058714;28;20061;-76
2022/12/01 09:26:28;;;;;;;42.70;22.23;;;;;;;;;;5062823;28;20025;-77
2022/12/01 09:28:56;;;;;;;41.53;21.67;;;;;;;;;;5053878;28;20025;-75
2022/12/01 09:31:22;;;;;;;44.13;22.63;;;;;;;;;;5044582;28;20354;-76
2022/12/01 09:33:48;;;;;;;41.67;21.27;;;;;;;;;;5066910;28;20033;-75
2022/12/01 09:36:17;;;;;;;43.57;20.87;;;;;;;;;;5061014;28;20032;-76
2022/12/01 09:38:43;;;;;;;42.67;21.60;;;;;;;;;;5049985;28;20338;-77
2022/12/01 09:41:16;;;;;;;38.00;20.10;;;;;;;;;;5066453;28;20025;-77
2022/12/01 09:43:45;;;;;;;41.93;19.53;;;;;;;;;;5055960;28;20146;-77
2022/12/01 09:46:15;;;;;;;41.63;21.60;;;;;;;;;;5057308;28;20456;-76
2022/12/01 09:48:43;;;;;;;38.80;19.70;;;;;;;;;;5065447;28;20043;-77
2022/12/01 09:51:12;;;;;;;38.83;18.97;;;;;;;;;;5062911;28;20388;-75
2022/12/01 09:53:39;;;;;;;39.07;19.73;;;;;;;;;;5045147;28;20051;-76
2022/12/01 09:56:05;;;;;;;38.40;20.40;;;;;;;;;;5057616;28;20465;-77
2022/12/01 09:58:32;;;;;;;34.23;18.00;;;;;;;;;;5057533;28;20029;-77
2022/12/01 10:00:58;;;;;;;37.63;19.00;;;;;;;;;;5057161;28;20044;-76
2022/12/01 10:03:39;;;;;;;37.37;19.23;;;;;;;;;;5058186;28;20036;-77
2022/12/01 10:06:07;;;;;;;33.40;17.10;;;;;;;;;;5057888;28;20056;-76
2022/12/01 10:08:40;;;;;;;35.60;19.13;;;;;;;;;;5043410;28;20111;-75
2022/12/01 10:11:16;;;;;;;33.57;18.20;;;;;;;;;;5046516;28;20091;-76
2022/12/01 10:13:42;;;;;;;33.33;18.40;;;;;;;;;;5075348;28;20082;-76
2022/12/01 10:16:12;;;;;;;34.57;18.57;;;;;;;;;;5069093;28;20079;-76
2022/12/01 10:18:41;;;;;;;36.93;18.03;;;;;;;;;;5066174;28;20029;-77
2022/12/01 10:21:17;;;;;;;35.87;18.50;;;;;;;;;;5084577;28;20021;-77
2022/12/01 10:23:46;;;;;;;34.27;18.53;;;;;;;;;;5077369;28;20024;-76
2022/12/01 10:26:27;;;;;;;40.57;19.40;;;;;;;;;;5076958;28;20033;-76
2022/12/01 10:29:14;;;;;;;38.17;19.47;;;;;;;;;;5060258;28;20037;-77
2022/12/01 10:31:53;;;;;;;41.87;20.33;;;;;;;;;;5048087;28;20037;-76
2022/12/01 10:34:23;;;;;;;37.80;20.47;;;;;;;;;;5073079;28;20039;-76
2022/12/01 10:36:49;;;;;;;38.10;19.83;;;;;;;;;;5056501;28;20043;-76
2022/12/01 10:39:22;;;;;;;39.53;19.50;;;;;;;;;;5070631;28;20449;-76
2022/12/01 10:41:49;;;;;;;42.97;21.93;;;;;;;;;;5065320;28;20079;-76
2022/12/01 10:44:16;;;;;;;38.00;20.43;;;;;;;;;;5063569;28;20099;-76
2022/12/01 10:46:45;;;;;;;42.37;20.40;;;;;;;;;;5056503;28;20111;-76
2022/12/01 10:49:12;;;;;;;37.53;20.37;;;;;;;;;;5056252;28;20499;-76
2022/12/01 10:51:57;;;;;;;42.10;20.80;;;;;;;;;;5057332;28;20021;-76
2022/12/01 10:54:32;;;;;;;41.30;20.57;;;;;;;;;;5068653;28;20124;-77
2022/12/01 10:56:58;;;;;;;38.13;20.43;;;;;;;;;;5058935;28;20032;-76
2022/12/01 10:59:43;;;;;;;38.53;20.57;;;;;;;;;;5056616;28;20020;-76
2022/12/01 11:02:17;;;;;;;39.77;20.43;;;;;;;;;;5042860;28;20021;-78
2022/12/01 11:04:47;;;;;;;39.77;21.67;;;;;;;;;;5055992;28;20029;-76
2022/12/01 11:07:18;;;;;;;40.53;21.17;;;;;;;;;;5043676;28;20021;-76
2022/12/01 11:09:54;;;;;;;38.53;20.40;;;;;;;;;;5055847;28;20078;-76
2022/12/01 11:12:22;;;;;;;38.20;21.07;;;;;;;;;;5043052;28;20029;-76
2022/12/01 11:14:50;;;;;;;37.17;22.07;;;;;;;;;;5053734;28;20453;-76
2022/12/01 11:17:19;;;;;;;38.33;20.70;;;;;;;;;;5048780;28;20020;-75
2022/12/01 11:19:45;;;;;;;37.93;20.67;;;;;;;;;;5048738;28;20036;-76
2022/12/01 11:22:22;;;;;;;31.77;17.57;;;;;;;;;;5049646;28;20115;-76
2022/12/01 11:24:54;;;;;;;37.47;18.90;;;;;;;;;;5049373;28;20047;-76
2022/12/01 11:27:23;;;;;;;34.20;19.58;;;;;;;;;;5061709;28;20095;-76
2022/12/01 11:29:50;;;;;;;31.03;17.80;;;;;;;;;;5046334;28;20018;-75
2022/12/01 11:32:19;;;;;;;32.30;19.07;;;;;;;;;;5063481;28;20112;-75
2022/12/01 11:34:53;;;;;;;31.87;17.73;;;;;;;;;;5063728;28;20028;-76
2022/12/01 11:37:20;;;;;;;26.63;16.27;;;;;;;;;;5046752;28;20036;-76
2022/12/01 11:39:47;;;;;;;29.87;17.10;;;;;;;;;;5047263;28;20032;-76
2022/12/01 11:42:13;;;;;;;30.37;16.47;;;;;;;;;;5051236;28;20032;-76
2022/12/01 11:44:40;;;;;;;35.27;18.50;;;;;;;;;;5065061;28;20025;-75
2022/12/01 11:47:17;;;;;;;31.43;16.77;;;;;;;;;;5048559;28;20608;-76
2022/12/01 11:49:44;;;;;;;27.93;16.10;;;;;;;;;;5062972;28;20025;-78
2022/12/01 11:52:22;;;;;;;28.97;17.40;;;;;;;;;;5047842;28;20539;-78
2022/12/01 11:54:55;;;;;;;32.07;16.63;;;;;;;;;;5045742;28;20064;-75
2022/12/01 11:57:21;;;;;;;30.47;16.90;;;;;;;;;;5061298;28;20060;-76
2022/12/01 11:59:47;;;;;;;31.30;17.33;;;;;;;;;;5045321;28;20025;-75
2022/12/01 12:02:21;;;;;;;30.10;16.43;;;;;;;;;;5064040;28;20029;-75
2022/12/01 12:04:47;;;;;;;31.67;17.07;;;;;;;;;;5060247;28;20111;-75
2022/12/01 12:07:34;;;;;;;30.97;17.07;;;;;;;;;;5045100;28;20021;-76
2022/12/01 12:10:00;;;;;;;29.20;17.53;;;;;;;;;;5059866;28;20031;-76
2022/12/01 12:12:41;;;;;;;31.30;14.17;;;;;;;;;;5058466;28;21638;-76
2022/12/01 12:15:12;;;;;;;29.73;16.67;;;;;;;;;;5043899;28;20033;-75
2022/12/01 12:17:38;;;;;;;35.07;16.07;;;;;;;;;;5056374;28;20790;-76
2022/12/01 12:20:10;;;;;;;34.43;17.00;;;;;;;;;;5050370;28;20083;-76
2022/12/01 12:22:48;;;;;;;31.00;17.55;;;;;;;;;;5054118;28;20032;-76
2022/12/01 12:25:17;;;;;;;29.43;16.50;;;;;;;;;;5043526;28;20037;-76
2022/12/01 12:27:50;;;;;;;33.60;18.47;;;;;;;;;;5058742;28;20033;-76
2022/12/01 12:30:25;;;;;;;36.07;19.20;;;;;;;;;;5046248;28;20025;-76
2022/12/01 12:32:51;;;;;;;35.93;18.53;;;;;;;;;;5045503;28;20036;-76
2022/12/01 12:35:38;;;;;;;41.67;22.03;;;;;;;;;;5041725;28;20033;-76
2022/12/01 12:38:22;;;;;;;41.73;21.10;;;;;;;;;;5045520;28;20044;-76
2022/12/01 12:40:59;;;;;;;42.40;22.00;;;;;;;;;;5055090;28;20040;-76
2022/12/01 12:43:51;;;;;;;45.50;22.40;;;;;;;;;;5043691;28;20025;-76
2022/12/01 12:46:31;;;;;;;44.30;23.40;;;;;;;;;;5037238;28;20037;-76
2022/12/01 12:49:09;;;;;;;45.03;22.90;;;;;;;;;;5042678;28;20025;-76
2022/12/01 12:51:40;;;;;;;42.00;22.43;;;;;;;;;;5056961;28;20095;-76
2022/12/01 12:54:06;;;;;;;37.07;20.80;;;;;;;;;;5045063;28;20120;-76
2022/12/01 12:56:33;;;;;;;39.50;21.67;;;;;;;;;;5059783;28;20037;-76
2022/12/01 12:59:06;;;;;;;42.60;21.97;;;;;;;;;;5057938;28;20125;-75
2022/12/01 13:01:32;;;;;;;43.87;23.10;;;;;;;;;;5053192;28;20025;-76
2022/12/01 13:04:00;;;;;;;40.70;22.53;;;;;;;;;;5044588;28;20033;-77
2022/12/01 13:06:26;;;;;;;40.90;22.70;;;;;;;;;;5041971;28;20045;-76
2022/12/01 13:09:01;;;;;;;40.77;23.17;;;;;;;;;;5058587;28;20029;-77
2022/12/01 13:11:33;;;;;;;50.10;24.53;;;;;;;;;;5058759;28;20029;-76
2022/12/01 13:14:02;;;;;;;48.40;25.57;;;;;;;;;;5056674;28;20036;-76
2022/12/01 13:16:31;;;;;;;56.47;26.77;;;;;;;;;;5048437;28;20037;-76
2022/12/01 13:19:07;;;;;;;49.00;26.00;;;;;;;;;;5068307;28;20048;-77
2022/12/01 13:21:35;;;;;;;48.53;24.97;;;;;;;;;;5053690;28;20346;-76
2022/12/01 13:24:02;;;;;;;45.87;24.67;;;;;;;;;;5053812;28;20353;-76
2022/12/01 13:26:28;;;;;;;49.37;25.67;;;;;;;;;;5053782;28;20025;-76
2022/12/01 13:28:56;;;;;;;47.40;24.10;;;;;;;;;;5054316;28;20021;-75
2022/12/01 13:31:22;;;;;;;40.83;23.27;;;;;;;;;;5053608;28;20029;-76
2022/12/01 13:33:58;;;;;;;48.00;24.37;;;;;;;;;;5067841;28;20032;-76
2022/12/01 13:36:27;;;;;;;43.80;23.10;;;;;;;;;;5062437;28;20032;-76
2022/12/01 13:38:56;;;;;;;41.53;22.40;;;;;;;;;;5069730;28;20430;-76
2022/12/01 13:41:24;;;;;;;45.97;23.53;;;;;;;;;;5052761;28;20075;-76
2022/12/01 13:44:03;;;;;;;46.23;25.30;;;;;;;;;;5043988;28;20488;-76
2022/12/01 13:46:49;;;;;;;43.30;24.17;;;;;;;;;;5039675;28;20029;-76
2022/12/01 13:49:35;;;;;;;58.63;31.07;;;;;;;;;;5053590;28;20033;-75
2022/12/01 13:52:20;;;;;;;44.47;23.80;;;;;;;;;;5057696;28;20245;-76
2022/12/01 13:55:05;;;;;;;43.30;24.13;;;;;;;;;;5053256;28;20036;-76
2022/12/01 13:57:32;;;;;;;47.57;24.80;;;;;;;;;;5054171;28;20049;-76
2022/12/01 13:59:58;;;;;;;46.07;24.90;;;;;;;;;;5053597;28;20853;-76
2022/12/01 14:02:25;;;;;;;49.07;24.67;;;;;;;;;;5054421;28;20029;-76
2022/12/01 14:04:57;;;;;;;47.03;25.63;;;;;;;;;;5067646;28;20092;-76
2022/12/01 14:07:28;;;;;;;49.78;25.27;;;;;;;;;;5042300;28;20060;-76
2022/12/01 14:10:06;;;;;;;46.50;25.77;;;;;;;;;;5053582;28;20036;-76
2022/12/01 14:12:36;;;;;;;47.47;25.17;;;;;;;;;;5053322;28;20021;-76
2022/12/01 14:15:05;;;;;;;41.10;22.90;;;;;;;;;;5053443;28;20044;-76
2022/12/01 14:17:34;;;;;;;42.37;23.90;;;;;;;;;;5053367;28;20025;-76
2022/12/01 14:20:07;;;;;;;49.23;25.37;;;;;;;;;;5056357;28;20122;-76
2022/12/01 14:22:52;;;;;;;49.08;25.83;;;;;;;;;;5056827;28;20090;-76
2022/12/01 14:25:18;;;;;;;47.17;25.97;;;;;;;;;;5069795;28;20029;-76
2022/12/01 14:27:44;;;;;;;47.70;25.53;;;;;;;;;;5067087;28;20029;-76